sensor_id;sensor_type;location;lat;lon;timestamp;pressure;altitude;pressure_sealevel;temperature;humidity
71764;BME280;59602;52.142;5.408;2023-02-18T00:00:18;102323.84;;;9.81;97.78
71764;BME280;59602;52.142;5.408;2023-02-18T00:02:45;102328.50;;;9.81;98.05
71764;BME280;59602;52.142;5.408;2023-02-18T00:05:13;102332.34;;;9.80;98.01
71764;BME280;59602;52.142;5.408;2023-02-18T00:07:40;102324.63;;;9.82;97.88
71764;BME280;59602;52.142;5.408;2023-02-18T00:10:10;102331.69;;;9.83;98.04
71764;BME280;59602;52.142;5.408;2023-02-18T00:12:38;102331.22;;;9.81;97.70
71764;BME280;59602;52.142;5.408;2023-02-18T00:15:05;102328.97;;;9.83;97.84
71764;BME280;59602;52.142;5.408;2023-02-18T00:17:32;102330.19;;;9.85;98.00
71764;BME280;59602;52.142;5.408;2023-02-18T00:19:59;102331.31;;;9.84;97.98
71764;BME280;59602;52.142;5.408;2023-02-18T00:22:26;102321.13;;;9.81;98.00
71764;BME280;59602;52.142;5.408;2023-02-18T00:24:52;102325.00;;;9.80;98.08
71764;BME280;59602;52.142;5.408;2023-02-18T00:27:19;102327.34;;;9.82;98.07
71764;BME280;59602;52.142;5.408;2023-02-18T00:29:45;102321.47;;;9.80;97.98
71764;BME280;59602;52.142;5.408;2023-02-18T00:32:12;102319.09;;;9.78;98.23
71764;BME280;59602;52.142;5.408;2023-02-18T00:34:39;102321.38;;;9.76;98.07
71764;BME280;59602;52.142;5.408;2023-02-18T00:37:06;102306.88;;;9.72;98.08
71764;BME280;59602;52.142;5.408;2023-02-18T00:39:33;102316.94;;;9.71;98.30
71764;BME280;59602;52.142;5.408;2023-02-18T00:42:00;102309.59;;;9.72;98.74
71764;BME280;59602;52.142;5.408;2023-02-18T00:44:26;102313.41;;;9.71;98.44
71764;BME280;59602;52.142;5.408;2023-02-18T00:46:53;102304.16;;;9.72;98.59
71764;BME280;59602;52.142;5.408;2023-02-18T00:49:19;102304.47;;;9.70;98.78
71764;BME280;59602;52.142;5.408;2023-02-18T00:51:46;102307.19;;;9.70;98.78
71764;BME280;59602;52.142;5.408;2023-02-18T00:54:12;102305.25;;;9.71;98.79
71764;BME280;59602;52.142;5.408;2023-02-18T00:56:40;102305.16;;;9.67;98.77
71764;BME280;59602;52.142;5.408;2023-02-18T00:59:06;102295.88;;;9.68;98.46
71764;BME280;59602;52.142;5.408;2023-02-18T01:01:33;102303.38;;;9.71;98.84
71764;BME280;59602;52.142;5.408;2023-02-18T01:04:00;102288.19;;;9.70;98.80
71764;BME280;59602;52.142;5.408;2023-02-18T01:06:27;102292.38;;;9.68;98.69
71764;BME280;59602;52.142;5.408;2023-02-18T01:08:53;102291.13;;;9.65;98.52
71764;BME280;59602;52.142;5.408;2023-02-18T01:11:20;102298.13;;;9.66;99.00
71764;BME280;59602;52.142;5.408;2023-02-18T01:13:46;102292.25;;;9.64;99.10
71764;BME280;59602;52.142;5.408;2023-02-18T01:16:13;102282.06;;;9.61;98.74
71764;BME280;59602;52.142;5.408;2023-02-18T01:18:40;102300.16;;;9.57;99.12
71764;BME280;59602;52.142;5.408;2023-02-18T01:21:08;102291.91;;;9.53;99.16
71764;BME280;59602;52.142;5.408;2023-02-18T01:23:37;102289.50;;;9.52;99.10
71764;BME280;59602;52.142;5.408;2023-02-18T01:26:06;102294.03;;;9.48;99.14
71764;BME280;59602;52.142;5.408;2023-02-18T01:28:34;102286.56;;;9.45;99.58
71764;BME280;59602;52.142;5.408;2023-02-18T01:31:06;102290.75;;;9.42;99.41
71764;BME280;59602;52.142;5.408;2023-02-18T01:33:35;102287.44;;;9.37;99.60
71764;BME280;59602;52.142;5.408;2023-02-18T01:36:02;102288.91;;;9.34;99.97
71764;BME280;59602;52.142;5.408;2023-02-18T01:38:29;102277.59;;;9.32;99.90
71764;BME280;59602;52.142;5.408;2023-02-18T01:40:55;102280.28;;;9.32;99.75
71764;BME280;59602;52.142;5.408;2023-02-18T01:43:22;102273.94;;;9.28;99.86
71764;BME280;59602;52.142;5.408;2023-02-18T01:45:58;102275.56;;;9.29;100.00
71764;BME280;59602;52.142;5.408;2023-02-18T01:48:30;102262.41;;;9.31;100.00
71764;BME280;59602;52.142;5.408;2023-02-18T01:51:04;102266.59;;;9.28;100.00
71764;BME280;59602;52.142;5.408;2023-02-18T01:53:43;102265.03;;;9.27;99.90
71764;BME280;59602;52.142;5.408;2023-02-18T01:56:15;102252.22;;;9.28;99.87
71764;BME280;59602;52.142;5.408;2023-02-18T01:58:45;102249.53;;;9.28;100.00
71764;BME280;59602;52.142;5.408;2023-02-18T02:01:13;102253.03;;;9.28;100.00
71764;BME280;59602;52.142;5.408;2023-02-18T02:03:40;102255.28;;;9.26;100.00
71764;BME280;59602;52.142;5.408;2023-02-18T02:06:15;102260.28;;;9.24;99.92
71764;BME280;59602;52.142;5.408;2023-02-18T02:08:43;102253.69;;;9.25;100.00
71764;BME280;59602;52.142;5.408;2023-02-18T02:13:55;102234.38;;;9.27;100.00
71764;BME280;59602;52.142;5.408;2023-02-18T02:16:32;102232.13;;;9.29;100.00
71764;BME280;59602;52.142;5.408;2023-02-18T02:27:18;102199.75;;;9.24;100.00
71764;BME280;59602;52.142;5.408;2023-02-18T02:35:14;102171.72;;;9.32;100.00
71764;BME280;59602;52.142;5.408;2023-02-18T02:37:48;102170.94;;;9.31;100.00
71764;BME280;59602;52.142;5.408;2023-02-18T02:43:12;102148.53;;;9.34;100.00
71764;BME280;59602;52.142;5.408;2023-02-18T02:45:51;102138.94;;;9.37;100.00
71764;BME280;59602;52.142;5.408;2023-02-18T02:53:41;102122.31;;;9.39;100.00
71764;BME280;59602;52.142;5.408;2023-02-18T02:56:14;102122.75;;;9.41;100.00
71764;BME280;59602;52.142;5.408;2023-02-18T02:58:44;102110.31;;;9.40;100.00
71764;BME280;59602;52.142;5.408;2023-02-18T03:04:12;102100.13;;;9.37;100.00
71764;BME280;59602;52.142;5.408;2023-02-18T03:09:30;102102.06;;;9.36;100.00
71764;BME280;59602;52.142;5.408;2023-02-18T03:12:11;102095.50;;;9.37;100.00
71764;BME280;59602;52.142;5.408;2023-02-18T03:14:49;102086.56;;;9.37;100.00
71764;BME280;59602;52.142;5.408;2023-02-18T03:17:28;102090.53;;;9.39;100.00
71764;BME280;59602;52.142;5.408;2023-02-18T03:20:06;102091.75;;;9.42;100.00
71764;BME280;59602;52.142;5.408;2023-02-18T03:22:38;102086.00;;;9.43;100.00
71764;BME280;59602;52.142;5.408;2023-02-18T03:25:07;102081.03;;;9.45;100.00
71764;BME280;59602;52.142;5.408;2023-02-18T03:27:41;102075.59;;;9.45;100.00
71764;BME280;59602;52.142;5.408;2023-02-18T03:30:13;102072.09;;;9.45;100.00
71764;BME280;59602;52.142;5.408;2023-02-18T03:32:42;102063.59;;;9.46;100.00
71764;BME280;59602;52.142;5.408;2023-02-18T03:35:14;102052.72;;;9.46;100.00
71764;BME280;59602;52.142;5.408;2023-02-18T03:37:47;102059.06;;;9.50;100.00
71764;BME280;59602;52.142;5.408;2023-02-18T03:40:17;102040.84;;;9.51;100.00
71764;BME280;59602;52.142;5.408;2023-02-18T03:42:44;102033.06;;;9.49;100.00
71764;BME280;59602;52.142;5.408;2023-02-18T03:45:11;102036.22;;;9.51;100.00
71764;BME280;59602;52.142;5.408;2023-02-18T03:47:38;102023.78;;;9.50;100.00
71764;BME280;59602;52.142;5.408;2023-02-18T03:50:05;102016.41;;;9.51;100.00
71764;BME280;59602;52.142;5.408;2023-02-18T03:52:32;102014.97;;;9.53;100.00
71764;BME280;59602;52.142;5.408;2023-02-18T03:55:04;102017.69;;;9.53;100.00
71764;BME280;59602;52.142;5.408;2023-02-18T03:57:30;102016.53;;;9.54;100.00
71764;BME280;59602;52.142;5.408;2023-02-18T03:59:57;102005.34;;;9.56;100.00
71764;BME280;59602;52.142;5.408;2023-02-18T04:02:25;102007.59;;;9.54;100.00
71764;BME280;59602;52.142;5.408;2023-02-18T04:04:52;101997.19;;;9.56;100.00
71764;BME280;59602;52.142;5.408;2023-02-18T04:07:19;101992.53;;;9.56;100.00
71764;BME280;59602;52.142;5.408;2023-02-18T04:09:45;101998.41;;;9.59;100.00
71764;BME280;59602;52.142;5.408;2023-02-18T04:12:12;101994.91;;;9.58;100.00
71764;BME280;59602;52.142;5.408;2023-02-18T04:14:38;101995.38;;;9.60;100.00
71764;BME280;59602;52.142;5.408;2023-02-18T04:17:05;101983.38;;;9.61;100.00
71764;BME280;59602;52.142;5.408;2023-02-18T04:19:33;101976.00;;;9.62;100.00
71764;BME280;59602;52.142;5.408;2023-02-18T04:21:59;101974.88;;;9.63;100.00
71764;BME280;59602;52.142;5.408;2023-02-18T04:24:26;101966.38;;;9.64;100.00
71764;BME280;59602;52.142;5.408;2023-02-18T04:26:53;101961.38;;;9.66;100.00
71764;BME280;59602;52.142;5.408;2023-02-18T04:29:20;101961.38;;;9.66;100.00
71764;BME280;59602;52.142;5.408;2023-02-18T04:31:47;101963.31;;;9.66;100.00
71764;BME280;59602;52.142;5.408;2023-02-18T04:34:14;101957.56;;;9.67;100.00
71764;BME280;59602;52.142;5.408;2023-02-18T04:36:41;101970.34;;;9.67;100.00
71764;BME280;59602;52.142;5.408;2023-02-18T04:39:07;101959.13;;;9.68;100.00
71764;BME280;59602;52.142;5.408;2023-02-18T04:41:34;101962.28;;;9.70;100.00
71764;BME280;59602;52.142;5.408;2023-02-18T04:44:01;101958.44;;;9.71;100.00
71764;BME280;59602;52.142;5.408;2023-02-18T04:46:27;101957.63;;;9.71;100.00
71764;BME280;59602;52.142;5.408;2023-02-18T04:48:54;101936.28;;;9.69;100.00
71764;BME280;59602;52.142;5.408;2023-02-18T04:51:20;101928.13;;;9.69;100.00
71764;BME280;59602;52.142;5.408;2023-02-18T04:53:48;101928.13;;;9.69;100.00
71764;BME280;59602;52.142;5.408;2023-02-18T04:56:14;101933.56;;;9.69;100.00
71764;BME280;59602;52.142;5.408;2023-02-18T04:58:41;101926.19;;;9.70;100.00
71764;BME280;59602;52.142;5.408;2023-02-18T05:01:07;101915.34;;;9.70;100.00
71764;BME280;59602;52.142;5.408;2023-02-18T05:03:34;101914.53;;;9.69;100.00
71764;BME280;59602;52.142;5.408;2023-02-18T05:06:01;101923.03;;;9.68;100.00
71764;BME280;59602;52.142;5.408;2023-02-18T05:08:27;101928.47;;;9.68;100.00
71764;BME280;59602;52.142;5.408;2023-02-18T05:10:54;101926.91;;;9.67;100.00
71764;BME280;59602;52.142;5.408;2023-02-18T05:13:21;101927.69;;;9.67;100.00
71764;BME280;59602;52.142;5.408;2023-02-18T05:15:48;101928.47;;;9.68;100.00
71764;BME280;59602;52.142;5.408;2023-02-18T05:18:15;101917.59;;;9.68;100.00
71764;BME280;59602;52.142;5.408;2023-02-18T05:20:42;101926.09;;;9.66;100.00
71764;BME280;59602;52.142;5.408;2023-02-18T05:23:09;101935.38;;;9.65;100.00
71764;BME280;59602;52.142;5.408;2023-02-18T05:25:35;101917.16;;;9.66;100.00
71764;BME280;59602;52.142;5.408;2023-02-18T05:28:02;101919.88;;;9.66;100.00
71764;BME280;59602;52.142;5.408;2023-02-18T05:30:28;101910.94;;;9.65;100.00
71764;BME280;59602;52.142;5.408;2023-02-18T05:32:55;101908.22;;;9.65;100.00
71764;BME280;59602;52.142;5.408;2023-02-18T05:35:22;101901.19;;;9.64;100.00
71764;BME280;59602;52.142;5.408;2023-02-18T05:37:48;101902.78;;;9.65;100.00
71764;BME280;59602;52.142;5.408;2023-02-18T05:40:16;101899.28;;;9.65;100.00
71764;BME280;59602;52.142;5.408;2023-02-18T05:42:43;101901.66;;;9.66;100.00
71764;BME280;59602;52.142;5.408;2023-02-18T05:45:09;101886.94;;;9.67;100.00
71764;BME280;59602;52.142;5.408;2023-02-18T05:47:36;101882.63;;;9.66;100.00
71764;BME280;59602;52.142;5.408;2023-02-18T05:50:03;101875.63;;;9.65;100.00
71764;BME280;59602;52.142;5.408;2023-02-18T05:52:30;101882.63;;;9.66;100.00
71764;BME280;59602;52.142;5.408;2023-02-18T05:54:57;101886.94;;;9.67;100.00
71764;BME280;59602;52.142;5.408;2023-02-18T05:57:23;101887.38;;;9.69;100.00
71764;BME280;59602;52.142;5.408;2023-02-18T05:59:51;101876.16;;;9.71;100.00
71764;BME280;59602;52.142;5.408;2023-02-18T06:02:17;101872.31;;;9.72;100.00
71764;BME280;59602;52.142;5.408;2023-02-18T06:04:44;101874.69;;;9.73;100.00
71764;BME280;59602;52.142;5.408;2023-02-18T06:07:10;101885.56;;;9.73;100.00
71764;BME280;59602;52.142;5.408;2023-02-18T06:09:38;101884.41;;;9.74;100.00
71764;BME280;59602;52.142;5.408;2023-02-18T06:12:05;101884.41;;;9.74;100.00
71764;BME280;59602;52.142;5.408;2023-02-18T06:14:31;101883.25;;;9.75;100.00
71764;BME280;59602;52.142;5.408;2023-02-18T06:16:58;101891.41;;;9.75;100.00
71764;BME280;59602;52.142;5.408;2023-02-18T06:19:25;101887.56;;;9.76;100.00
71764;BME280;59602;52.142;5.408;2023-02-18T06:21:52;101879.44;;;9.76;100.00
71764;BME280;59602;52.142;5.408;2023-02-18T06:24:19;101878.28;;;9.77;100.00
71764;BME280;59602;52.142;5.408;2023-02-18T06:26:46;101881.00;;;9.77;100.00
71764;BME280;59602;52.142;5.408;2023-02-18T06:29:12;101886.09;;;9.79;100.00
71764;BME280;59602;52.142;5.408;2023-02-18T06:31:38;101879.88;;;9.79;100.00
71764;BME280;59602;52.142;5.408;2023-02-18T06:34:05;101879.53;;;9.80;100.00
71764;BME280;59602;52.142;5.408;2023-02-18T06:36:33;101889.25;;;9.81;100.00
71764;BME280;59602;52.142;5.408;2023-02-18T06:39:02;101883.81;;;9.81;100.00
71764;BME280;59602;52.142;5.408;2023-02-18T06:41:29;101898.97;;;9.82;100.00
71764;BME280;59602;52.142;5.408;2023-02-18T06:43:55;101875.66;;;9.81;100.00
71764;BME280;59602;52.142;5.408;2023-02-18T06:46:22;101886.88;;;9.80;100.00
71764;BME280;59602;52.142;5.408;2023-02-18T06:48:49;101889.25;;;9.81;100.00
71764;BME280;59602;52.142;5.408;2023-02-18T06:51:15;101896.59;;;9.81;100.00
71764;BME280;59602;52.142;5.408;2023-02-18T06:53:42;101893.91;;;9.81;100.00
71764;BME280;59602;52.142;5.408;2023-02-18T06:56:09;101886.53;;;9.81;100.00
71764;BME280;59602;52.142;5.408;2023-02-18T06:58:37;101891.50;;;9.79;100.00
71764;BME280;59602;52.142;5.408;2023-02-18T07:01:04;101892.66;;;9.78;100.00
71764;BME280;59602;52.142;5.408;2023-02-18T07:03:31;101881.00;;;9.77;100.00
71764;BME280;59602;52.142;5.408;2023-02-18T07:05:59;101877.84;;;9.75;100.00
71764;BME280;59602;52.142;5.408;2023-02-18T07:08:26;101872.75;;;9.74;100.00
71764;BME280;59602;52.142;5.408;2023-02-18T07:10:52;101871.16;;;9.73;100.00
71764;BME280;59602;52.142;5.408;2023-02-18T07:13:19;101881.25;;;9.72;100.00
71764;BME280;59602;52.142;5.408;2023-02-18T07:15:45;101882.84;;;9.73;100.00
71764;BME280;59602;52.142;5.408;2023-02-18T07:18:12;101880.91;;;9.74;100.00
71764;BME280;59602;52.142;5.408;2023-02-18T07:20:38;101880.53;;;9.75;100.00
71764;BME280;59602;52.142;5.408;2023-02-18T07:23:05;101879.75;;;9.75;100.00
71764;BME280;59602;52.142;5.408;2023-02-18T07:25:31;101877.03;;;9.75;100.00
71764;BME280;59602;52.142;5.408;2023-02-18T07:27:58;101892.56;;;9.74;100.00
71764;BME280;59602;52.142;5.408;2023-02-18T07:30:24;101877.03;;;9.75;100.00
71764;BME280;59602;52.142;5.408;2023-02-18T07:32:51;101873.09;;;9.72;100.00
71764;BME280;59602;52.142;5.408;2023-02-18T07:35:18;101871.97;;;9.73;100.00
71764;BME280;59602;52.142;5.408;2023-02-18T07:37:46;101873.44;;;9.71;100.00
71764;BME280;59602;52.142;5.408;2023-02-18T07:40:15;101872.31;;;9.72;100.00
71764;BME280;59602;52.142;5.408;2023-02-18T07:42:42;101855.25;;;9.71;100.00
71764;BME280;59602;52.142;5.408;2023-02-18T07:45:09;101863.84;;;9.73;100.00
71764;BME280;59602;52.142;5.408;2023-02-18T07:47:36;101859.19;;;9.74;100.00
71764;BME280;59602;52.142;5.408;2023-02-18T07:50:04;101859.63;;;9.76;100.00
71764;BME280;59602;52.142;5.408;2023-02-18T07:52:31;101865.50;;;9.78;100.00
71764;BME280;59602;52.142;5.408;2023-02-18T07:54:58;101875.56;;;9.77;100.00
71764;BME280;59602;52.142;5.408;2023-02-18T07:57:24;101865.50;;;9.78;100.00
71764;BME280;59602;52.142;5.408;2023-02-18T07:59:51;101865.50;;;9.78;100.00
71764;BME280;59602;52.142;5.408;2023-02-18T08:02:21;101878.28;;;9.77;100.00
71764;BME280;59602;52.142;5.408;2023-02-18T08:04:48;101871.63;;;9.75;100.00
71764;BME280;59602;52.142;5.408;2023-02-18T08:07:16;101881.69;;;9.74;100.00
71764;BME280;59602;52.142;5.408;2023-02-18T08:09:43;101876.25;;;9.74;100.00
71764;BME280;59602;52.142;5.408;2023-02-18T08:12:11;101879.31;;;9.73;100.00
71764;BME280;59602;52.142;5.408;2023-02-18T08:14:37;101880.91;;;9.74;100.00
71764;BME280;59602;52.142;5.408;2023-02-18T08:17:04;101882.03;;;9.73;100.00
71764;BME280;59602;52.142;5.408;2023-02-18T08:19:30;101889.41;;;9.72;100.00
71764;BME280;59602;52.142;5.408;2023-02-18T08:22:00;101885.91;;;9.72;99.82
71764;BME280;59602;52.142;5.408;2023-02-18T08:24:28;101890.88;;;9.70;99.62
71764;BME280;59602;52.142;5.408;2023-02-18T08:26:55;101888.16;;;9.70;99.72
71764;BME280;59602;52.142;5.408;2023-02-18T08:29:27;101895.88;;;9.68;99.45
71764;BME280;59602;52.142;5.408;2023-02-18T08:31:54;101895.88;;;9.68;99.27
71764;BME280;59602;52.142;5.408;2023-02-18T08:34:22;101907.88;;;9.67;99.62
71764;BME280;59602;52.142;5.408;2023-02-18T08:36:49;101908.56;;;9.64;99.60
71764;BME280;59602;52.142;5.408;2023-02-18T08:39:15;101909.72;;;9.63;99.48
71764;BME280;59602;52.142;5.408;2023-02-18T08:41:42;101913.53;;;9.62;99.37
71764;BME280;59602;52.142;5.408;2023-02-18T08:44:09;101915.81;;;9.60;99.59
71764;BME280;59602;52.142;5.408;2023-02-18T08:46:36;101908.81;;;9.59;99.26
71764;BME280;59602;52.142;5.408;2023-02-18T08:49:04;101897.97;;;9.59;99.37
71764;BME280;59602;52.142;5.408;2023-02-18T08:51:30;101905.66;;;9.56;99.60
71764;BME280;59602;52.142;5.408;2023-02-18T08:53:57;101900.94;;;9.53;99.44
71764;BME280;59602;52.142;5.408;2023-02-18T08:56:24;101896.63;;;9.52;99.33
71764;BME280;59602;52.142;5.408;2023-02-18T08:58:51;101891.88;;;9.49;99.20
71764;BME280;59602;52.142;5.408;2023-02-18T09:01:17;101904.22;;;9.47;99.23
71764;BME280;59602;52.142;5.408;2023-02-18T09:03:44;101900.72;;;9.46;99.18
71764;BME280;59602;52.142;5.408;2023-02-18T09:06:10;101908.84;;;9.46;99.05
71764;BME280;59602;52.142;5.408;2023-02-18T09:08:37;101911.13;;;9.44;99.16
71764;BME280;59602;52.142;5.408;2023-02-18T09:11:03;101921.19;;;9.44;98.91
71764;BME280;59602;52.142;5.408;2023-02-18T09:13:31;101907.63;;;9.44;99.19
71764;BME280;59602;52.142;5.408;2023-02-18T09:16:01;101913.06;;;9.44;98.83
71764;BME280;59602;52.142;5.408;2023-02-18T09:18:30;101915.44;;;9.45;99.14
71764;BME280;59602;52.142;5.408;2023-02-18T09:20:58;101898.44;;;9.48;99.21
71764;BME280;59602;52.142;5.408;2023-02-18T09:23:27;101911.22;;;9.48;99.13
71764;BME280;59602;52.142;5.408;2023-02-18T09:25:55;101911.22;;;9.48;98.87
71764;BME280;59602;52.142;5.408;2023-02-18T09:28:22;101918.59;;;9.47;98.81
71764;BME280;59602;52.142;5.408;2023-02-18T09:30:49;101909.66;;;9.47;98.63
71764;BME280;59602;52.142;5.408;2023-02-18T09:33:17;101917.81;;;9.47;98.71
71764;BME280;59602;52.142;5.408;2023-02-18T09:35:45;101912.81;;;9.49;98.08
71764;BME280;59602;52.142;5.408;2023-02-18T09:38:15;101920.59;;;9.50;97.99
71764;BME280;59602;52.142;5.408;2023-02-18T09:40:46;101929.19;;;9.52;97.88
71764;BME280;59602;52.142;5.408;2023-02-18T09:43:22;101929.66;;;9.54;97.50
71764;BME280;59602;52.142;5.408;2023-02-18T09:45:53;101931.25;;;9.55;97.37
71764;BME280;59602;52.142;5.408;2023-02-18T09:48:26;101928.16;;;9.57;97.78
71764;BME280;59602;52.142;5.408;2023-02-18T09:50:54;101935.97;;;9.59;97.56
71764;BME280;59602;52.142;5.408;2023-02-18T09:53:22;101939.59;;;9.63;97.45
71764;BME280;59602;52.142;5.408;2023-02-18T09:55:51;101939.13;;;9.61;97.18
71764;BME280;59602;52.142;5.408;2023-02-18T09:58:22;101938.75;;;9.62;96.94
71764;BME280;59602;52.142;5.408;2023-02-18T10:00:55;101939.22;;;9.64;96.66
71764;BME280;59602;52.142;5.408;2023-02-18T10:03:26;101926.09;;;9.66;96.72
71764;BME280;59602;52.142;5.408;2023-02-18T10:06:00;101930.84;;;9.69;96.54
71764;BME280;59602;52.142;5.408;2023-02-18T10:08:34;101950.28;;;9.71;96.24
71764;BME280;59602;52.142;5.408;2023-02-18T10:11:02;101945.72;;;9.75;96.22
71764;BME280;59602;52.142;5.408;2023-02-18T10:13:31;101951.59;;;9.77;95.60
71764;BME280;59602;52.142;5.408;2023-02-18T10:15:58;101954.88;;;9.83;95.31
71764;BME280;59602;52.142;5.408;2023-02-18T10:18:30;101952.69;;;9.89;94.97
71764;BME280;59602;52.142;5.408;2023-02-18T10:21:05;101947.81;;;9.94;94.86
71764;BME280;59602;52.142;5.408;2023-02-18T10:23:37;101946.31;;;9.97;94.58
71764;BME280;59602;52.142;5.408;2023-02-18T10:26:07;101950.25;;;10.00;94.65
71764;BME280;59602;52.142;5.408;2023-02-18T10:28:36;101957.75;;;10.03;94.17
71764;BME280;59602;52.142;5.408;2023-02-18T10:31:07;101961.31;;;10.07;94.10
71764;BME280;59602;52.142;5.408;2023-02-18T10:33:45;101963.69;;;10.08;93.62
71764;BME280;59602;52.142;5.408;2023-02-18T10:38:58;101961.59;;;10.17;94.09
71764;BME280;59602;52.142;5.408;2023-02-18T10:41:56;101965.19;;;10.22;93.80
71764;BME280;59602;52.142;5.408;2023-02-18T10:44:29;101978.19;;;10.28;93.72
71764;BME280;59602;52.142;5.408;2023-02-18T10:49:55;101974.63;;;10.40;92.73
71764;BME280;59602;52.142;5.408;2023-02-18T10:52:25;101982.09;;;10.43;92.75
71764;BME280;59602;52.142;5.408;2023-02-18T10:57:30;101974.22;;;10.54;92.33
71764;BME280;59602;52.142;5.408;2023-02-18T11:00:14;101964.56;;;10.56;92.00
71764;BME280;59602;52.142;5.408;2023-02-18T11:02:41;101962.72;;;10.61;92.17
71764;BME280;59602;52.142;5.408;2023-02-18T11:05:23;101974.81;;;10.63;91.76
71764;BME280;59602;52.142;5.408;2023-02-18T11:07:52;101973.69;;;10.64;92.13
71764;BME280;59602;52.142;5.408;2023-02-18T11:10:26;101969.47;;;10.67;91.93
71764;BME280;59602;52.142;5.408;2023-02-18T11:13:01;101973.59;;;10.76;91.85
71764;BME280;59602;52.142;5.408;2023-02-18T11:15:29;101969.81;;;10.81;91.43
71764;BME280;59602;52.142;5.408;2023-02-18T11:18:11;101971.09;;;10.87;91.04
71764;BME280;59602;52.142;5.408;2023-02-18T11:20:39;101963.47;;;10.93;90.63
71764;BME280;59602;52.142;5.408;2023-02-18T11:25:34;101976.28;;;10.92;91.02
71764;BME280;59602;52.142;5.408;2023-02-18T11:30:52;101964.88;;;10.87;90.67
71764;BME280;59602;52.142;5.408;2023-02-18T11:33:24;101974.63;;;10.88;90.60
71764;BME280;59602;52.142;5.408;2023-02-18T11:35:56;101970.31;;;10.87;91.16
71764;BME280;59602;52.142;5.408;2023-02-18T11:38:28;101979.25;;;10.87;91.51
71764;BME280;59602;52.142;5.408;2023-02-18T11:41:09;101976.81;;;10.82;91.73
71764;BME280;59602;52.142;5.408;2023-02-18T11:43:41;101984.09;;;10.78;92.91
71764;BME280;59602;52.142;5.408;2023-02-18T11:46:14;101984.47;;;10.76;93.24
71764;BME280;59602;52.142;5.408;2023-02-18T11:48:42;101970.88;;;10.76;93.52
71764;BME280;59602;52.142;5.408;2023-02-18T11:51:18;101977.53;;;10.79;93.51
71764;BME280;59602;52.142;5.408;2023-02-18T11:54:04;101975.94;;;10.78;93.85
71764;BME280;59602;52.142;5.408;2023-02-18T11:56:34;101982.59;;;10.80;94.04
71764;BME280;59602;52.142;5.408;2023-02-18T11:59:03;101970.25;;;10.83;93.51
71764;BME280;59602;52.142;5.408;2023-02-18T12:04:06;101973.03;;;10.87;93.70
71764;BME280;59602;52.142;5.408;2023-02-18T12:06:38;101967.69;;;10.90;93.45
71764;BME280;59602;52.142;5.408;2023-02-18T12:09:27;101968.47;;;10.91;93.34
71764;BME280;59602;52.142;5.408;2023-02-18T12:11:57;101966.91;;;10.90;93.03
71764;BME280;59602;52.142;5.408;2023-02-18T12:14:26;101953.66;;;10.88;92.86
71764;BME280;59602;52.142;5.408;2023-02-18T12:17:24;101966.47;;;10.88;92.92
71764;BME280;59602;52.142;5.408;2023-02-18T12:25:23;101966.91;;;10.90;92.22
71764;BME280;59602;52.142;5.408;2023-02-18T12:30:50;101957.69;;;10.94;91.80
71764;BME280;59602;52.142;5.408;2023-02-18T12:36:23;101963.28;;;11.01;91.13
71764;BME280;59602;52.142;5.408;2023-02-18T12:49:58;101972.19;;;11.18;90.22
71764;BME280;59602;52.142;5.408;2023-02-18T12:58:13;101974.06;;;11.33;90.20
71764;BME280;59602;52.142;5.408;2023-02-18T13:00:54;101984.69;;;11.38;89.93
71764;BME280;59602;52.142;5.408;2023-02-18T13:09:24;101971.16;;;11.42;88.85
71764;BME280;59602;52.142;5.408;2023-02-18T13:12:03;101972.31;;;11.41;89.34
71764;BME280;59602;52.142;5.408;2023-02-18T13:14:42;101979.31;;;11.42;89.12
71764;BME280;59602;52.142;5.408;2023-02-18T13:17:13;101977.31;;;11.39;89.28
71764;BME280;59602;52.142;5.408;2023-02-18T13:19:52;101979.63;;;11.37;89.32
71764;BME280;59602;52.142;5.408;2023-02-18T13:22:22;101969.06;;;11.35;89.26
71764;BME280;59602;52.142;5.408;2023-02-18T13:24:53;101985.41;;;11.35;89.16
71764;BME280;59602;52.142;5.408;2023-02-18T13:27:32;101991.63;;;11.36;89.14
71764;BME280;59602;52.142;5.408;2023-02-18T13:30:17;101983.13;;;11.37;89.22
71764;BME280;59602;52.142;5.408;2023-02-18T13:41:08;101976.69;;;11.46;88.46
71764;BME280;59602;52.142;5.408;2023-02-18T13:43:41;101968.56;;;11.49;88.67
71764;BME280;59602;52.142;5.408;2023-02-18T13:46:27;101977.91;;;11.48;88.82
71764;BME280;59602;52.142;5.408;2023-02-18T13:54:02;101984.13;;;11.49;88.54
71764;BME280;59602;52.142;5.408;2023-02-18T13:56:32;101994.69;;;11.50;88.07
71764;BME280;59602;52.142;5.408;2023-02-18T13:59:09;101993.09;;;11.49;87.88
71764;BME280;59602;52.142;5.408;2023-02-18T14:04:35;102001.41;;;11.56;87.67
71764;BME280;59602;52.142;5.408;2023-02-18T14:09:51;102003.47;;;11.63;87.66
71764;BME280;59602;52.142;5.408;2023-02-18T14:12:34;102002.44;;;11.68;87.10
71764;BME280;59602;52.142;5.408;2023-02-18T14:20:44;102012.66;;;11.74;86.88
71764;BME280;59602;52.142;5.408;2023-02-18T14:25:50;101997.56;;;11.77;86.28
71764;BME280;59602;52.142;5.408;2023-02-18T14:31:01;102010.47;;;11.80;86.68
71764;BME280;59602;52.142;5.408;2023-02-18T14:33:31;102007.81;;;11.83;86.48
71764;BME280;59602;52.142;5.408;2023-02-18T14:41:30;102011.41;;;11.88;86.05
71764;BME280;59602;52.142;5.408;2023-02-18T14:49:35;102009.38;;;11.84;86.12
71764;BME280;59602;52.142;5.408;2023-02-18T14:52:05;102001.56;;;11.83;86.31
71764;BME280;59602;52.142;5.408;2023-02-18T14:54:32;102000.78;;;11.82;86.46
71764;BME280;59602;52.142;5.408;2023-02-18T14:57:04;101997.63;;;11.80;86.42
71764;BME280;59602;52.142;5.408;2023-02-18T14:59:38;102014.34;;;11.79;86.69
71764;BME280;59602;52.142;5.408;2023-02-18T15:02:21;102016.25;;;11.78;86.93
71764;BME280;59602;52.142;5.408;2023-02-18T15:04:48;102008.47;;;11.77;86.59